sensor_id;sensor_type;location;lat;lon;timestamp;P1;durP1;ratioP1;P2;durP2;ratioP2
21814;SDS011;11069;48.988;8.450;2023-04-16T00:01:38;34.63;;;26.60;;
21814;SDS011;11069;48.988;8.450;2023-04-16T00:04:04;38.75;;;27.55;;
21814;SDS011;11069;48.988;8.450;2023-04-16T00:06:30;41.03;;;29.85;;
21814;SDS011;11069;48.988;8.450;2023-04-16T00:08:56;38.22;;;29.08;;
21814;SDS011;11069;48.988;8.450;2023-04-16T00:11:24;41.95;;;30.75;;
21814;SDS011;11069;48.988;8.450;2023-04-16T00:13:50;44.60;;;31.33;;
21814;SDS011;11069;48.988;8.450;2023-04-16T00:16:15;40.60;;;30.08;;
21814;SDS011;11069;48.988;8.450;2023-04-16T00:18:44;42.85;;;30.48;;
21814;SDS011;11069;48.988;8.450;2023-04-16T00:21:10;43.58;;;30.70;;
21814;SDS011;11069;48.988;8.450;2023-04-16T00:23:36;42.25;;;30.10;;
21814;SDS011;11069;48.988;8.450;2023-04-16T00:26:02;44.20;;;31.35;;
21814;SDS011;11069;48.988;8.450;2023-04-16T00:28:28;44.25;;;31.08;;
21814;SDS011;11069;48.988;8.450;2023-04-16T00:30:53;44.10;;;31.55;;
21814;SDS011;11069;48.988;8.450;2023-04-16T00:33:19;41.53;;;30.10;;
21814;SDS011;11069;48.988;8.450;2023-04-16T00:35:45;43.88;;;30.50;;
21814;SDS011;11069;48.988;8.450;2023-04-16T00:38:12;42.83;;;30.48;;
21814;SDS011;11069;48.988;8.450;2023-04-16T00:40:38;43.13;;;31.10;;
21814;SDS011;11069;48.988;8.450;2023-04-16T00:43:04;44.30;;;32.00;;
21814;SDS011;11069;48.988;8.450;2023-04-16T00:45:33;45.50;;;31.42;;
21814;SDS011;11069;48.988;8.450;2023-04-16T00:47:59;43.88;;;30.90;;
21814;SDS011;11069;48.988;8.450;2023-04-16T00:50:25;42.90;;;30.83;;
21814;SDS011;11069;48.988;8.450;2023-04-16T00:52:51;43.67;;;31.10;;
21814;SDS011;11069;48.988;8.450;2023-04-16T00:55:16;39.92;;;28.60;;
21814;SDS011;11069;48.988;8.450;2023-04-16T00:57:43;41.40;;;31.13;;
21814;SDS011;11069;48.988;8.450;2023-04-16T01:00:09;40.88;;;30.67;;
21814;SDS011;11069;48.988;8.450;2023-04-16T01:02:36;43.45;;;30.52;;
21814;SDS011;11069;48.988;8.450;2023-04-16T01:05:03;41.75;;;30.15;;
21814;SDS011;11069;48.988;8.450;2023-04-16T01:07:29;41.58;;;30.70;;
21814;SDS011;11069;48.988;8.450;2023-04-16T01:09:58;41.75;;;31.08;;
21814;SDS011;11069;48.988;8.450;2023-04-16T01:12:23;42.45;;;30.85;;
21814;SDS011;11069;48.988;8.450;2023-04-16T01:14:52;42.20;;;30.85;;
21814;SDS011;11069;48.988;8.450;2023-04-16T01:17:17;38.92;;;29.08;;
21814;SDS011;11069;48.988;8.450;2023-04-16T01:19:43;44.58;;;31.67;;
21814;SDS011;11069;48.988;8.450;2023-04-16T01:22:09;45.75;;;31.58;;
21814;SDS011;11069;48.988;8.450;2023-04-16T01:24:34;40.90;;;30.98;;
21814;SDS011;11069;48.988;8.450;2023-04-16T01:27:00;44.13;;;32.20;;
21814;SDS011;11069;48.988;8.450;2023-04-16T01:29:26;43.75;;;30.90;;
21814;SDS011;11069;48.988;8.450;2023-04-16T01:31:51;43.28;;;30.83;;
21814;SDS011;11069;48.988;8.450;2023-04-16T01:34:20;46.85;;;32.28;;
21814;SDS011;11069;48.988;8.450;2023-04-16T01:36:45;48.28;;;33.55;;
21814;SDS011;11069;48.988;8.450;2023-04-16T01:39:11;46.22;;;32.03;;
21814;SDS011;11069;48.988;8.450;2023-04-16T01:41:39;47.00;;;32.72;;
21814;SDS011;11069;48.988;8.450;2023-04-16T01:44:07;47.40;;;32.83;;
21814;SDS011;11069;48.988;8.450;2023-04-16T01:46:33;45.35;;;31.92;;
21814;SDS011;11069;48.988;8.450;2023-04-16T01:49:00;45.47;;;32.70;;
21814;SDS011;11069;48.988;8.450;2023-04-16T01:51:26;49.08;;;34.22;;
21814;SDS011;11069;48.988;8.450;2023-04-16T01:53:52;45.25;;;32.83;;
21814;SDS011;11069;48.988;8.450;2023-04-16T01:56:18;45.35;;;32.60;;
21814;SDS011;11069;48.988;8.450;2023-04-16T01:58:43;46.42;;;32.83;;
21814;SDS011;11069;48.988;8.450;2023-04-16T02:01:10;48.88;;;33.50;;
21814;SDS011;11069;48.988;8.450;2023-04-16T02:03:36;44.80;;;32.53;;
21814;SDS011;11069;48.988;8.450;2023-04-16T02:06:02;46.53;;;33.17;;
21814;SDS011;11069;48.988;8.450;2023-04-16T02:08:27;49.53;;;34.30;;
21814;SDS011;11069;48.988;8.450;2023-04-16T02:10:53;54.05;;;36.03;;
21814;SDS011;11069;48.988;8.450;2023-04-16T02:13:20;52.78;;;35.13;;
21814;SDS011;11069;48.988;8.450;2023-04-16T02:15:46;52.38;;;35.47;;
21814;SDS011;11069;48.988;8.450;2023-04-16T02:18:13;53.78;;;35.28;;
21814;SDS011;11069;48.988;8.450;2023-04-16T02:20:40;54.50;;;35.63;;
21814;SDS011;11069;48.988;8.450;2023-04-16T02:23:06;50.70;;;33.53;;
21814;SDS011;11069;48.988;8.450;2023-04-16T02:25:36;51.78;;;35.35;;
21814;SDS011;11069;48.988;8.450;2023-04-16T02:28:06;50.45;;;33.80;;
21814;SDS011;11069;48.988;8.450;2023-04-16T02:30:33;54.38;;;34.08;;
21814;SDS011;11069;48.988;8.450;2023-04-16T02:32:59;47.33;;;32.15;;
21814;SDS011;11069;48.988;8.450;2023-04-16T02:35:27;47.08;;;32.50;;
21814;SDS011;11069;48.988;8.450;2023-04-16T02:37:53;50.72;;;33.90;;
21814;SDS011;11069;48.988;8.450;2023-04-16T02:40:18;50.45;;;35.15;;
21814;SDS011;11069;48.988;8.450;2023-04-16T02:42:44;51.92;;;34.80;;
21814;SDS011;11069;48.988;8.450;2023-04-16T02:45:10;52.05;;;34.83;;
21814;SDS011;11069;48.988;8.450;2023-04-16T02:47:35;48.20;;;33.05;;
21814;SDS011;11069;48.988;8.450;2023-04-16T02:50:01;49.20;;;34.15;;
21814;SDS011;11069;48.988;8.450;2023-04-16T02:52:27;48.42;;;33.35;;
21814;SDS011;11069;48.988;8.450;2023-04-16T02:54:53;53.17;;;33.85;;
21814;SDS011;11069;48.988;8.450;2023-04-16T02:57:18;53.85;;;35.60;;
21814;SDS011;11069;48.988;8.450;2023-04-16T02:59:44;48.95;;;32.17;;
21814;SDS011;11069;48.988;8.450;2023-04-16T03:02:09;49.88;;;33.72;;
21814;SDS011;11069;48.988;8.450;2023-04-16T03:04:35;49.83;;;34.22;;
21814;SDS011;11069;48.988;8.450;2023-04-16T03:07:00;49.25;;;33.95;;
21814;SDS011;11069;48.988;8.450;2023-04-16T03:09:26;50.08;;;35.03;;
21814;SDS011;11069;48.988;8.450;2023-04-16T03:11:52;51.35;;;35.30;;
21814;SDS011;11069;48.988;8.450;2023-04-16T03:14:17;53.70;;;34.47;;
21814;SDS011;11069;48.988;8.450;2023-04-16T03:16:43;53.22;;;35.53;;
21814;SDS011;11069;48.988;8.450;2023-04-16T03:19:08;48.65;;;33.83;;
21814;SDS011;11069;48.988;8.450;2023-04-16T03:21:34;48.35;;;33.92;;
21814;SDS011;11069;48.988;8.450;2023-04-16T03:23:59;54.17;;;34.85;;
21814;SDS011;11069;48.988;8.450;2023-04-16T03:26:25;52.90;;;34.42;;
21814;SDS011;11069;48.988;8.450;2023-04-16T03:28:51;57.05;;;36.67;;
21814;SDS011;11069;48.988;8.450;2023-04-16T03:31:16;57.35;;;36.92;;
21814;SDS011;11069;48.988;8.450;2023-04-16T03:33:42;57.53;;;36.90;;
21814;SDS011;11069;48.988;8.450;2023-04-16T03:36:08;55.45;;;36.65;;
21814;SDS011;11069;48.988;8.450;2023-04-16T03:38:34;60.90;;;39.33;;
21814;SDS011;11069;48.988;8.450;2023-04-16T03:40:59;60.72;;;38.28;;
21814;SDS011;11069;48.988;8.450;2023-04-16T03:43:25;61.90;;;38.65;;
21814;SDS011;11069;48.988;8.450;2023-04-16T03:45:50;61.38;;;38.75;;
21814;SDS011;11069;48.988;8.450;2023-04-16T03:48:16;65.07;;;39.47;;
21814;SDS011;11069;48.988;8.450;2023-04-16T03:50:45;68.03;;;38.72;;
21814;SDS011;11069;48.988;8.450;2023-04-16T03:53:11;65.05;;;38.97;;
21814;SDS011;11069;48.988;8.450;2023-04-16T03:55:37;66.53;;;40.05;;
21814;SDS011;11069;48.988;8.450;2023-04-16T03:58:03;63.20;;;38.33;;
21814;SDS011;11069;48.988;8.450;2023-04-16T04:00:29;67.10;;;39.65;;
21814;SDS011;11069;48.988;8.450;2023-04-16T04:02:55;69.63;;;40.60;;
21814;SDS011;11069;48.988;8.450;2023-04-16T04:05:21;63.53;;;37.10;;
21814;SDS011;11069;48.988;8.450;2023-04-16T04:07:46;62.28;;;38.28;;
21814;SDS011;11069;48.988;8.450;2023-04-16T04:10:12;65.13;;;40.42;;
21814;SDS011;11069;48.988;8.450;2023-04-16T04:12:38;69.28;;;41.47;;
21814;SDS011;11069;48.988;8.450;2023-04-16T04:15:03;67.82;;;40.33;;
21814;SDS011;11069;48.988;8.450;2023-04-16T04:17:29;69.70;;;41.55;;
21814;SDS011;11069;48.988;8.450;2023-04-16T04:19:55;61.42;;;37.20;;
21814;SDS011;11069;48.988;8.450;2023-04-16T04:22:20;69.60;;;41.63;;
21814;SDS011;11069;48.988;8.450;2023-04-16T04:24:46;65.43;;;40.83;;
21814;SDS011;11069;48.988;8.450;2023-04-16T04:27:12;65.10;;;39.53;;
21814;SDS011;11069;48.988;8.450;2023-04-16T04:29:37;65.90;;;39.85;;
21814;SDS011;11069;48.988;8.450;2023-04-16T04:32:03;64.80;;;39.45;;
21814;SDS011;11069;48.988;8.450;2023-04-16T04:34:28;64.53;;;39.70;;
21814;SDS011;11069;48.988;8.450;2023-04-16T04:36:54;67.95;;;40.20;;
21814;SDS011;11069;48.988;8.450;2023-04-16T04:39:20;67.43;;;39.30;;
21814;SDS011;11069;48.988;8.450;2023-04-16T04:41:46;68.60;;;38.78;;
21814;SDS011;11069;48.988;8.450;2023-04-16T04:44:12;63.67;;;39.10;;
21814;SDS011;11069;48.988;8.450;2023-04-16T04:46:38;66.65;;;39.00;;
21814;SDS011;11069;48.988;8.450;2023-04-16T04:49:04;59.67;;;37.55;;
21814;SDS011;11069;48.988;8.450;2023-04-16T04:51:30;62.83;;;38.97;;
21814;SDS011;11069;48.988;8.450;2023-04-16T04:53:56;59.33;;;37.58;;
21814;SDS011;11069;48.988;8.450;2023-04-16T04:56:22;56.83;;;36.55;;
21814;SDS011;11069;48.988;8.450;2023-04-16T04:58:50;55.67;;;35.58;;
21814;SDS011;11069;48.988;8.450;2023-04-16T05:01:16;55.58;;;36.20;;
21814;SDS011;11069;48.988;8.450;2023-04-16T05:03:41;55.45;;;36.13;;
21814;SDS011;11069;48.988;8.450;2023-04-16T05:06:07;52.88;;;34.15;;
21814;SDS011;11069;48.988;8.450;2023-04-16T05:08:33;52.13;;;34.13;;
21814;SDS011;11069;48.988;8.450;2023-04-16T05:10:59;49.67;;;34.55;;
21814;SDS011;11069;48.988;8.450;2023-04-16T05:13:24;51.33;;;33.33;;
21814;SDS011;11069;48.988;8.450;2023-04-16T05:15:50;51.35;;;32.35;;
21814;SDS011;11069;48.988;8.450;2023-04-16T05:18:15;49.13;;;33.28;;
21814;SDS011;11069;48.988;8.450;2023-04-16T05:20:41;47.40;;;31.35;;
21814;SDS011;11069;48.988;8.450;2023-04-16T05:23:06;44.97;;;32.10;;
21814;SDS011;11069;48.988;8.450;2023-04-16T05:25:32;44.72;;;30.25;;
21814;SDS011;11069;48.988;8.450;2023-04-16T05:27:57;42.33;;;29.88;;
21814;SDS011;11069;48.988;8.450;2023-04-16T05:30:23;40.47;;;28.15;;
21814;SDS011;11069;48.988;8.450;2023-04-16T05:32:49;41.38;;;28.20;;
21814;SDS011;11069;48.988;8.450;2023-04-16T05:35:14;35.08;;;25.27;;
21814;SDS011;11069;48.988;8.450;2023-04-16T05:37:40;37.17;;;24.83;;
21814;SDS011;11069;48.988;8.450;2023-04-16T05:40:06;37.50;;;25.88;;
21814;SDS011;11069;48.988;8.450;2023-04-16T05:42:32;36.13;;;25.90;;
21814;SDS011;11069;48.988;8.450;2023-04-16T05:44:57;37.35;;;25.33;;
21814;SDS011;11069;48.988;8.450;2023-04-16T05:47:23;36.97;;;25.63;;
21814;SDS011;11069;48.988;8.450;2023-04-16T05:49:49;33.33;;;24.20;;
21814;SDS011;11069;48.988;8.450;2023-04-16T05:52:14;34.00;;;24.55;;
21814;SDS011;11069;48.988;8.450;2023-04-16T05:54:40;35.40;;;24.52;;
21814;SDS011;11069;48.988;8.450;2023-04-16T05:57:05;34.85;;;24.30;;
21814;SDS011;11069;48.988;8.450;2023-04-16T05:59:31;36.70;;;24.17;;
21814;SDS011;11069;48.988;8.450;2023-04-16T06:01:57;37.70;;;23.70;;
21814;SDS011;11069;48.988;8.450;2023-04-16T06:04:22;35.95;;;23.83;;
21814;SDS011;11069;48.988;8.450;2023-04-16T06:06:48;33.83;;;22.48;;
21814;SDS011;11069;48.988;8.450;2023-04-16T06:09:13;34.92;;;23.10;;
21814;SDS011;11069;48.988;8.450;2023-04-16T06:11:39;34.13;;;23.83;;
21814;SDS011;11069;48.988;8.450;2023-04-16T06:14:05;36.45;;;24.60;;
21814;SDS011;11069;48.988;8.450;2023-04-16T06:16:30;33.28;;;23.40;;
21814;SDS011;11069;48.988;8.450;2023-04-16T06:18:56;36.97;;;23.95;;
21814;SDS011;11069;48.988;8.450;2023-04-16T06:21:21;31.95;;;22.90;;
21814;SDS011;11069;48.988;8.450;2023-04-16T06:23:47;31.15;;;22.40;;
21814;SDS011;11069;48.988;8.450;2023-04-16T06:26:13;33.67;;;23.35;;
21814;SDS011;11069;48.988;8.450;2023-04-16T06:28:38;30.55;;;22.23;;
21814;SDS011;11069;48.988;8.450;2023-04-16T06:31:04;31.85;;;21.98;;
21814;SDS011;11069;48.988;8.450;2023-04-16T06:33:29;33.80;;;22.60;;
21814;SDS011;11069;48.988;8.450;2023-04-16T06:35:55;32.78;;;22.35;;
21814;SDS011;11069;48.988;8.450;2023-04-16T06:38:20;32.45;;;22.75;;
21814;SDS011;11069;48.988;8.450;2023-04-16T06:40:47;30.83;;;21.48;;
21814;SDS011;11069;48.988;8.450;2023-04-16T06:43:13;33.53;;;22.35;;
21814;SDS011;11069;48.988;8.450;2023-04-16T06:45:39;33.47;;;21.80;;
21814;SDS011;11069;48.988;8.450;2023-04-16T06:48:05;30.52;;;21.80;;
21814;SDS011;11069;48.988;8.450;2023-04-16T06:50:31;30.92;;;21.27;;
21814;SDS011;11069;48.988;8.450;2023-04-16T06:52:56;31.83;;;21.25;;
21814;SDS011;11069;48.988;8.450;2023-04-16T06:55:22;26.23;;;19.33;;
21814;SDS011;11069;48.988;8.450;2023-04-16T06:57:47;27.88;;;19.83;;
21814;SDS011;11069;48.988;8.450;2023-04-16T07:00:13;27.45;;;19.45;;
21814;SDS011;11069;48.988;8.450;2023-04-16T07:02:39;26.95;;;19.75;;
21814;SDS011;11069;48.988;8.450;2023-04-16T07:05:04;25.60;;;18.13;;
21814;SDS011;11069;48.988;8.450;2023-04-16T07:07:31;27.42;;;17.75;;
21814;SDS011;11069;48.988;8.450;2023-04-16T07:09:57;25.00;;;17.98;;
21814;SDS011;11069;48.988;8.450;2023-04-16T07:12:23;22.33;;;17.52;;
21814;SDS011;11069;48.988;8.450;2023-04-16T07:14:49;24.65;;;17.63;;
21814;SDS011;11069;48.988;8.450;2023-04-16T07:17:15;21.52;;;16.00;;
21814;SDS011;11069;48.988;8.450;2023-04-16T07:19:40;23.23;;;17.65;;
21814;SDS011;11069;48.988;8.450;2023-04-16T07:22:06;20.90;;;16.10;;
21814;SDS011;11069;48.988;8.450;2023-04-16T07:24:32;22.92;;;16.48;;
21814;SDS011;11069;48.988;8.450;2023-04-16T07:26:57;23.25;;;17.20;;
21814;SDS011;11069;48.988;8.450;2023-04-16T07:29:23;23.00;;;16.52;;
21814;SDS011;11069;48.988;8.450;2023-04-16T07:31:48;20.73;;;16.40;;
21814;SDS011;11069;48.988;8.450;2023-04-16T07:34:14;21.30;;;16.13;;
21814;SDS011;11069;48.988;8.450;2023-04-16T07:36:39;21.95;;;16.88;;
21814;SDS011;11069;48.988;8.450;2023-04-16T07:39:05;19.58;;;15.55;;
21814;SDS011;11069;48.988;8.450;2023-04-16T07:41:31;21.08;;;16.20;;
21814;SDS011;11069;48.988;8.450;2023-04-16T07:43:56;24.50;;;17.17;;
21814;SDS011;11069;48.988;8.450;2023-04-16T07:46:22;22.42;;;16.20;;
21814;SDS011;11069;48.988;8.450;2023-04-16T07:48:48;22.58;;;16.05;;
21814;SDS011;11069;48.988;8.450;2023-04-16T07:51:13;21.10;;;15.98;;
21814;SDS011;11069;48.988;8.450;2023-04-16T07:53:39;25.00;;;17.30;;
21814;SDS011;11069;48.988;8.450;2023-04-16T07:56:07;20.75;;;16.42;;
21814;SDS011;11069;48.988;8.450;2023-04-16T07:58:33;20.85;;;16.33;;
21814;SDS011;11069;48.988;8.450;2023-04-16T08:00:58;19.88;;;14.48;;
21814;SDS011;11069;48.988;8.450;2023-04-16T08:03:25;18.73;;;14.45;;
21814;SDS011;11069;48.988;8.450;2023-04-16T08:05:51;21.42;;;15.57;;
21814;SDS011;11069;48.988;8.450;2023-04-16T08:08:16;20.15;;;15.13;;
21814;SDS011;11069;48.988;8.450;2023-04-16T08:10:42;23.58;;;17.48;;
21814;SDS011;11069;48.988;8.450;2023-04-16T08:13:07;20.50;;;14.70;;
21814;SDS011;11069;48.988;8.450;2023-04-16T08:15:33;21.92;;;16.60;;
21814;SDS011;11069;48.988;8.450;2023-04-16T08:17:58;21.42;;;15.85;;
21814;SDS011;11069;48.988;8.450;2023-04-16T08:20:24;19.35;;;15.57;;
21814;SDS011;11069;48.988;8.450;2023-04-16T08:22:50;20.88;;;16.23;;
21814;SDS011;11069;48.988;8.450;2023-04-16T08:25:17;22.42;;;16.77;;
21814;SDS011;11069;48.988;8.450;2023-04-16T08:27:44;22.42;;;16.98;;
21814;SDS011;11069;48.988;8.450;2023-04-16T08:30:10;22.33;;;15.85;;
21814;SDS011;11069;48.988;8.450;2023-04-16T08:32:35;20.63;;;14.48;;
21814;SDS011;11069;48.988;8.450;2023-04-16T08:35:01;20.45;;;15.20;;
21814;SDS011;11069;48.988;8.450;2023-04-16T08:37:27;20.33;;;14.27;;
21814;SDS011;11069;48.988;8.450;2023-04-16T08:39:52;18.00;;;13.82;;
21814;SDS011;11069;48.988;8.450;2023-04-16T08:42:22;17.23;;;13.73;;
21814;SDS011;11069;48.988;8.450;2023-04-16T08:44:58;18.10;;;14.05;;
21814;SDS011;11069;48.988;8.450;2023-04-16T08:47:32;16.23;;;12.98;;
21814;SDS011;11069;48.988;8.450;2023-04-16T08:49:59;14.80;;;12.00;;
21814;SDS011;11069;48.988;8.450;2023-04-16T08:52:26;16.52;;;13.13;;
21814;SDS011;11069;48.988;8.450;2023-04-16T08:55:06;16.80;;;13.48;;
21814;SDS011;11069;48.988;8.450;2023-04-16T08:57:43;16.25;;;12.30;;
21814;SDS011;11069;48.988;8.450;2023-04-16T09:00:13;15.63;;;12.40;;
21814;SDS011;11069;48.988;8.450;2023-04-16T09:02:39;15.10;;;12.25;;
21814;SDS011;11069;48.988;8.450;2023-04-16T09:05:06;15.70;;;11.95;;
21814;SDS011;11069;48.988;8.450;2023-04-16T09:07:33;15.20;;;11.52;;
21814;SDS011;11069;48.988;8.450;2023-04-16T09:09:59;15.35;;;12.15;;
21814;SDS011;11069;48.988;8.450;2023-04-16T09:12:25;16.98;;;12.13;;
21814;SDS011;11069;48.988;8.450;2023-04-16T09:14:51;16.70;;;12.38;;
21814;SDS011;11069;48.988;8.450;2023-04-16T09:17:17;17.08;;;12.15;;
21814;SDS011;11069;48.988;8.450;2023-04-16T09:19:43;15.20;;;12.05;;
21814;SDS011;11069;48.988;8.450;2023-04-16T09:22:10;15.48;;;12.13;;
21814;SDS011;11069;48.988;8.450;2023-04-16T09:24:35;15.77;;;11.63;;
21814;SDS011;11069;48.988;8.450;2023-04-16T09:27:02;15.80;;;12.32;;
21814;SDS011;11069;48.988;8.450;2023-04-16T09:29:32;16.33;;;11.82;;
21814;SDS011;11069;48.988;8.450;2023-04-16T09:32:01;16.63;;;12.25;;
21814;SDS011;11069;48.988;8.450;2023-04-16T09:34:28;16.83;;;12.40;;
21814;SDS011;11069;48.988;8.450;2023-04-16T09:37:15;15.43;;;11.90;;
21814;SDS011;11069;48.988;8.450;2023-04-16T09:39:42;13.85;;;11.07;;
21814;SDS011;11069;48.988;8.450;2023-04-16T09:42:10;16.23;;;12.48;;
21814;SDS011;11069;48.988;8.450;2023-04-16T09:44:36;14.98;;;11.82;;
21814;SDS011;11069;48.988;8.450;2023-04-16T09:47:06;14.45;;;11.43;;
21814;SDS011;11069;48.988;8.450;2023-04-16T09:49:42;14.57;;;11.63;;
21814;SDS011;11069;48.988;8.450;2023-04-16T09:52:26;16.50;;;11.98;;
21814;SDS011;11069;48.988;8.450;2023-04-16T09:54:52;14.55;;;11.02;;
21814;SDS011;11069;48.988;8.450;2023-04-16T09:57:21;14.50;;;11.45;;
21814;SDS011;11069;48.988;8.450;2023-04-16T10:00:09;16.00;;;12.10;;
21814;SDS011;11069;48.988;8.450;2023-04-16T10:02:34;15.60;;;12.23;;
21814;SDS011;11069;48.988;8.450;2023-04-16T10:05:04;15.75;;;11.73;;
21814;SDS011;11069;48.988;8.450;2023-04-16T10:07:32;15.50;;;12.02;;
21814;SDS011;11069;48.988;8.450;2023-04-16T10:09:59;16.58;;;12.05;;
21814;SDS011;11069;48.988;8.450;2023-04-16T10:12:24;17.40;;;12.07;;
21814;SDS011;11069;48.988;8.450;2023-04-16T10:14:51;16.50;;;12.73;;
21814;SDS011;11069;48.988;8.450;2023-04-16T10:17:16;15.52;;;12.05;;
21814;SDS011;11069;48.988;8.450;2023-04-16T10:19:43;16.38;;;11.68;;
21814;SDS011;11069;48.988;8.450;2023-04-16T10:22:09;16.20;;;12.77;;
21814;SDS011;11069;48.988;8.450;2023-04-16T10:24:35;18.63;;;13.25;;
21814;SDS011;11069;48.988;8.450;2023-04-16T10:27:01;16.08;;;12.40;;
21814;SDS011;11069;48.988;8.450;2023-04-16T10:29:27;17.92;;;13.30;;
21814;SDS011;11069;48.988;8.450;2023-04-16T10:31:55;16.52;;;12.23;;
21814;SDS011;11069;48.988;8.450;2023-04-16T10:34:21;19.38;;;13.52;;
21814;SDS011;11069;48.988;8.450;2023-04-16T10:36:49;20.27;;;13.18;;
21814;SDS011;11069;48.988;8.450;2023-04-16T10:39:20;15.93;;;12.43;;
21814;SDS011;11069;48.988;8.450;2023-04-16T10:41:47;15.95;;;12.80;;
21814;SDS011;11069;48.988;8.450;2023-04-16T10:44:14;17.77;;;12.70;;
21814;SDS011;11069;48.988;8.450;2023-04-16T10:46:42;15.48;;;11.98;;
21814;SDS011;11069;48.988;8.450;2023-04-16T10:49:18;16.30;;;12.38;;
21814;SDS011;11069;48.988;8.450;2023-04-16T10:56:52;15.82;;;10.18;;
21814;SDS011;11069;48.988;8.450;2023-04-16T10:59:21;14.57;;;11.07;;
21814;SDS011;11069;48.988;8.450;2023-04-16T11:01:55;17.13;;;12.63;;
21814;SDS011;11069;48.988;8.450;2023-04-16T11:04:24;16.05;;;12.13;;
21814;SDS011;11069;48.988;8.450;2023-04-16T11:12:41;15.18;;;11.82;;
21814;SDS011;11069;48.988;8.450;2023-04-16T11:15:11;16.65;;;11.70;;
21814;SDS011;11069;48.988;8.450;2023-04-16T11:17:45;15.85;;;12.48;;
21814;SDS011;11069;48.988;8.450;2023-04-16T11:20:22;14.45;;;11.73;;
21814;SDS011;11069;48.988;8.450;2023-04-16T11:22:50;17.13;;;12.90;;
21814;SDS011;11069;48.988;8.450;2023-04-16T11:27:46;16.08;;;12.05;;
21814;SDS011;11069;48.988;8.450;2023-04-16T11:30:12;14.20;;;11.57;;
21814;SDS011;11069;48.988;8.450;2023-04-16T11:32:38;15.20;;;11.88;;
21814;SDS011;11069;48.988;8.450;2023-04-16T11:35:11;15.15;;;11.75;;
21814;SDS011;11069;48.988;8.450;2023-04-16T11:37:38;18.20;;;12.00;;
21814;SDS011;11069;48.988;8.450;2023-04-16T11:40:04;15.15;;;11.32;;
21814;SDS011;11069;48.988;8.450;2023-04-16T11:42:31;15.98;;;12.20;;
21814;SDS011;11069;48.988;8.450;2023-04-16T11:45:01;15.23;;;11.63;;
21814;SDS011;11069;48.988;8.450;2023-04-16T11:47:29;15.23;;;12.00;;
21814;SDS011;11069;48.988;8.450;2023-04-16T11:49:55;16.58;;;12.25;;
21814;SDS011;11069;48.988;8.450;2023-04-16T11:52:28;16.90;;;12.40;;
21814;SDS011;11069;48.988;8.450;2023-04-16T11:54:56;16.60;;;12.50;;
21814;SDS011;11069;48.988;8.450;2023-04-16T11:57:23;16.92;;;12.45;;
21814;SDS011;11069;48.988;8.450;2023-04-16T11:59:49;16.90;;;13.02;;
21814;SDS011;11069;48.988;8.450;2023-04-16T12:02:15;15.63;;;12.93;;
21814;SDS011;11069;48.988;8.450;2023-04-16T12:04:41;17.52;;;13.15;;
21814;SDS011;11069;48.988;8.450;2023-04-16T12:07:07;16.52;;;12.45;;
21814;SDS011;11069;48.988;8.450;2023-04-16T12:09:34;18.65;;;13.07;;
21814;SDS011;11069;48.988;8.450;2023-04-16T12:12:02;17.65;;;13.50;;
21814;SDS011;11069;48.988;8.450;2023-04-16T12:14:28;16.80;;;13.40;;
21814;SDS011;11069;48.988;8.450;2023-04-16T12:16:54;17.27;;;12.30;;
21814;SDS011;11069;48.988;8.450;2023-04-16T12:19:20;17.33;;;12.40;;
21814;SDS011;11069;48.988;8.450;2023-04-16T12:21:47;16.92;;;12.63;;
21814;SDS011;11069;48.988;8.450;2023-04-16T12:24:15;15.35;;;12.50;;
21814;SDS011;11069;48.988;8.450;2023-04-16T12:26:50;15.88;;;12.13;;
21814;SDS011;11069;48.988;8.450;2023-04-16T12:29:23;15.30;;;11.10;;
21814;SDS011;11069;48.988;8.450;2023-04-16T12:31:50;14.15;;;10.35;;
21814;SDS011;11069;48.988;8.450;2023-04-16T12:34:17;13.30;;;10.75;;
21814;SDS011;11069;48.988;8.450;2023-04-16T12:36:44;14.52;;;11.38;;
21814;SDS011;11069;48.988;8.450;2023-04-16T12:39:11;14.73;;;11.23;;
21814;SDS011;11069;48.988;8.450;2023-04-16T12:41:39;17.88;;;12.10;;
21814;SDS011;11069;48.988;8.450;2023-04-16T12:44:07;14.95;;;11.50;;
21814;SDS011;11069;48.988;8.450;2023-04-16T12:46:36;14.85;;;11.50;;
21814;SDS011;11069;48.988;8.450;2023-04-16T12:49:05;16.63;;;12.57;;
21814;SDS011;11069;48.988;8.450;2023-04-16T12:51:31;17.67;;;12.57;;
21814;SDS011;11069;48.988;8.450;2023-04-16T12:53:58;18.80;;;13.25;;
21814;SDS011;11069;48.988;8.450;2023-04-16T12:56:24;20.63;;;13.32;;
21814;SDS011;11069;48.988;8.450;2023-04-16T12:58:49;17.52;;;13.35;;
21814;SDS011;11069;48.988;8.450;2023-04-16T13:01:16;18.10;;;12.73;;
21814;SDS011;11069;48.988;8.450;2023-04-16T13:03:43;16.50;;;12.88;;
21814;SDS011;11069;48.988;8.450;2023-04-16T13:06:09;17.55;;;13.13;;
21814;SDS011;11069;48.988;8.450;2023-04-16T13:08:35;17.85;;;12.77;;
21814;SDS011;11069;48.988;8.450;2023-04-16T13:11:01;18.25;;;12.40;;
21814;SDS011;11069;48.988;8.450;2023-04-16T13:13:27;18.00;;;13.00;;
21814;SDS011;11069;48.988;8.450;2023-04-16T13:15:53;17.25;;;13.13;;
21814;SDS011;11069;48.988;8.450;2023-04-16T13:18:18;17.50;;;12.60;;
21814;SDS011;11069;48.988;8.450;2023-04-16T13:20:44;18.98;;;13.70;;
21814;SDS011;11069;48.988;8.450;2023-04-16T13:23:10;17.83;;;12.93;;
21814;SDS011;11069;48.988;8.450;2023-04-16T13:25:35;18.52;;;13.38;;
21814;SDS011;11069;48.988;8.450;2023-04-16T13:28:01;18.35;;;12.73;;
21814;SDS011;11069;48.988;8.450;2023-04-16T13:30:27;15.10;;;12.30;;
21814;SDS011;11069;48.988;8.450;2023-04-16T13:32:53;17.48;;;13.27;;
21814;SDS011;11069;48.988;8.450;2023-04-16T13:35:22;16.98;;;13.10;;
21814;SDS011;11069;48.988;8.450;2023-04-16T13:37:48;15.93;;;12.65;;
21814;SDS011;11069;48.988;8.450;2023-04-16T13:40:13;18.35;;;13.32;;
21814;SDS011;11069;48.988;8.450;2023-04-16T13:42:39;16.90;;;11.85;;
21814;SDS011;11069;48.988;8.450;2023-04-16T13:45:05;16.60;;;12.70;;
21814;SDS011;11069;48.988;8.450;2023-04-16T13:47:31;17.50;;;12.48;;
21814;SDS011;11069;48.988;8.450;2023-04-16T13:49:57;18.88;;;12.70;;
21814;SDS011;11069;48.988;8.450;2023-04-16T13:52:22;18.40;;;13.23;;
21814;SDS011;11069;48.988;8.450;2023-04-16T13:54:48;15.70;;;12.23;;
21814;SDS011;11069;48.988;8.450;2023-04-16T13:57:14;15.57;;;12.40;;
21814;SDS011;11069;48.988;8.450;2023-04-16T13:59:39;20.45;;;13.57;;
21814;SDS011;11069;48.988;8.450;2023-04-16T14:02:05;17.38;;;13.07;;
21814;SDS011;11069;48.988;8.450;2023-04-16T14:04:31;17.83;;;13.27;;
21814;SDS011;11069;48.988;8.450;2023-04-16T14:06:57;19.05;;;12.70;;
21814;SDS011;11069;48.988;8.450;2023-04-16T14:09:22;19.13;;;13.50;;
21814;SDS011;11069;48.988;8.450;2023-04-16T14:11:48;18.55;;;13.10;;
21814;SDS011;11069;48.988;8.450;2023-04-16T14:14:14;19.17;;;13.45;;
21814;SDS011;11069;48.988;8.450;2023-04-16T14:16:40;20.08;;;13.82;;
21814;SDS011;11069;48.988;8.450;2023-04-16T14:19:06;20.10;;;13.75;;
21814;SDS011;11069;48.988;8.450;2023-04-16T14:21:31;18.05;;;12.90;;
21814;SDS011;11069;48.988;8.450;2023-04-16T14:24:00;17.45;;;12.60;;
21814;SDS011;11069;48.988;8.450;2023-04-16T14:26:27;20.55;;;13.00;;
21814;SDS011;11069;48.988;8.450;2023-04-16T14:28:52;18.25;;;13.23;;
21814;SDS011;11069;48.988;8.450;2023-04-16T14:31:18;18.52;;;12.57;;